createdAt,value
2022-11-20T00:00:06.216Z,98515.25
2022-11-20T00:01:40.285Z,98507.09
2022-11-20T00:03:13.895Z,98502.53
2022-11-20T00:04:47.218Z,98512.94
2022-11-20T00:06:22.007Z,98514.66
2022-11-20T00:07:55.194Z,98518.94
2022-11-20T00:09:28.498Z,98513.66
2022-11-20T00:11:05.315Z,98513.72
2022-11-20T00:12:38.524Z,98518.84
2022-11-20T00:14:12.369Z,98502.22
2022-11-20T00:15:45.653Z,98501.81
2022-11-20T00:17:18.863Z,98506.38
2022-11-20T00:18:54.015Z,98503.13
2022-11-20T00:20:27.314Z,98509.16
2022-11-20T00:22:00.505Z,98507.25
2022-11-20T00:23:33.998Z,98507.25
2022-11-20T00:25:07.614Z,98501.09
2022-11-20T00:26:39.825Z,98499.69
2022-11-20T00:28:13.929Z,98512.69
2022-11-20T00:29:47.584Z,98511.81
2022-11-20T00:31:20.013Z,98516.31
2022-11-20T00:32:53.183Z,98513.81
2022-11-20T00:34:27.873Z,98519.88
2022-11-20T00:36:04.844Z,98522.38
2022-11-20T00:37:38.068Z,98499.81
2022-11-20T00:39:11.340Z,98508.22
2022-11-20T00:40:44.550Z,98518.53
2022-11-20T00:42:17.695Z,98509.91
2022-11-20T00:43:50.983Z,98509.78
2022-11-20T00:45:24.130Z,98508.09
2022-11-20T00:46:57.355Z,98508.88
2022-11-20T00:48:30.923Z,98512.28
2022-11-20T00:50:06.225Z,98519.38
2022-11-20T00:51:39.487Z,98507.94
2022-11-20T00:53:11.598Z,98505.25
2022-11-20T00:54:44.767Z,98516.69
2022-11-20T00:56:20.491Z,98500.66
2022-11-20T00:57:53.755Z,98502.13
2022-11-20T00:59:26.992Z,98503.81
2022-11-20T01:01:02.220Z,98489.94
2022-11-20T01:02:35.473Z,98503.47
2022-11-20T01:04:08.645Z,98505.03
2022-11-20T01:05:42.210Z,98490.91
2022-11-20T01:07:15.443Z,98475.97
2022-11-20T01:08:49.293Z,98461.03
2022-11-20T01:10:22.484Z,98475.19
2022-11-20T01:11:55.750Z,98480.50
2022-11-20T01:13:40.171Z,98475.50
2022-11-20T01:15:13.333Z,98492.91
2022-11-20T01:16:49.316Z,98485.63
2022-11-20T01:18:21.499Z,98473.25
2022-11-20T01:19:54.780Z,98474.25
2022-11-20T01:21:31.301Z,98467.13
2022-11-20T01:23:03.618Z,98477.59
2022-11-20T01:24:36.852Z,98473.66
2022-11-20T01:26:12.244Z,98463.69
2022-11-20T01:27:45.390Z,98465.19
2022-11-20T01:29:21.411Z,98474.88
2022-11-20T01:30:53.693Z,98489.19
2022-11-20T01:32:26.848Z,98477.38
2022-11-20T01:34:03.042Z,98473.00
2022-11-20T01:35:36.315Z,98474.06
2022-11-20T01:37:10.920Z,98476.66
2022-11-20T01:38:43.494Z,98477.38
2022-11-20T01:40:16.707Z,98473.13
2022-11-20T01:42:19.761Z,98486.66
2022-11-20T01:43:51.934Z,98497.84
2022-11-20T01:45:58.254Z,98484.38
2022-11-20T01:47:36.847Z,98488.56
2022-11-20T01:49:12.430Z,98492.75
2022-11-20T01:50:46.652Z,98492.63
2022-11-20T01:52:24.712Z,98487.47
2022-11-20T01:54:01.227Z,98474.47
2022-11-20T01:55:37.635Z,98466.94
2022-11-20T01:57:13.193Z,98472.38
2022-11-20T01:58:52.281Z,98478.00
2022-11-20T02:00:25.588Z,98456.47
2022-11-20T02:01:59.175Z,98485.03
2022-11-20T02:03:31.912Z,98479.97
2022-11-20T02:05:14.159Z,98474.13
2022-11-20T02:06:51.795Z,98474.13
2022-11-20T02:08:26.833Z,98475.28
2022-11-20T02:10:00.010Z,98480.25
2022-11-20T02:11:33.578Z,98474.97
2022-11-20T02:13:25.109Z,98474.06
2022-11-20T02:14:58.269Z,98502.03
2022-11-20T02:16:34.328Z,98498.47
2022-11-20T02:18:07.339Z,98479.16
2022-11-20T02:19:41.059Z,98481.81
2022-11-20T02:21:35.664Z,98480.97
2022-11-20T02:23:14.886Z,98467.69
2022-11-20T02:24:51.224Z,98469.47
2022-11-20T02:26:26.244Z,98457.13
2022-11-20T02:27:59.401Z,98463.84
2022-11-20T02:29:37.732Z,98450.44
2022-11-20T02:31:10.002Z,98439.72
2022-11-20T02:32:43.351Z,98447.25
2022-11-20T02:34:16.506Z,98447.25
2022-11-20T02:35:48.828Z,98451.22
2022-11-20T02:37:23.044Z,98447.38
2022-11-20T02:38:56.515Z,98450.63
2022-11-20T02:40:30.776Z,98447.03
2022-11-20T02:42:04.254Z,98426.41
2022-11-20T02:43:37.625Z,98425.16
2022-11-20T02:45:11.440Z,98424.00
2022-11-20T02:46:43.631Z,98436.94
2022-11-20T02:48:17.097Z,98426.38
2022-11-20T02:49:50.209Z,98442.00
2022-11-20T02:51:22.576Z,98426.81
2022-11-20T02:52:55.888Z,98422.94
2022-11-20T02:54:29.032Z,98416.75
2022-11-20T02:56:02.637Z,98422.09
2022-11-20T02:57:36.020Z,98418.75
2022-11-20T02:59:09.478Z,98426.38
2022-11-20T03:00:41.697Z,98412.25
2022-11-20T03:02:14.867Z,98422.63
2022-11-20T03:03:49.569Z,98404.91
2022-11-20T03:05:22.839Z,98397.84
2022-11-20T03:06:56.035Z,98408.16
2022-11-20T03:08:29.390Z,98407.16
2022-11-20T03:10:02.785Z,98400.88
2022-11-20T03:11:37.461Z,98407.69
2022-11-20T03:13:10.630Z,98414.69
2022-11-20T03:14:43.919Z,98421.53
2022-11-20T03:16:19.694Z,98428.00
2022-11-20T03:17:54.750Z,98430.56
2022-11-20T03:19:28.027Z,98436.63
2022-11-20T03:21:01.821Z,98436.53
2022-11-20T03:22:35.069Z,98424.50
2022-11-20T03:24:08.921Z,98423.72
2022-11-20T03:25:41.176Z,98427.84
2022-11-20T03:27:15.700Z,98434.16
2022-11-20T03:28:51.063Z,98431.81
2022-11-20T03:30:27.641Z,98441.22
2022-11-20T03:32:03.669Z,98439.00
2022-11-20T03:33:36.880Z,98439.91
2022-11-20T03:35:11.009Z,98453.13
2022-11-20T03:36:45.158Z,98438.19
2022-11-20T03:38:18.415Z,98441.00
2022-11-20T03:39:51.564Z,98448.94
2022-11-20T03:41:26.756Z,98451.66
2022-11-20T03:43:00.259Z,98431.81
2022-11-20T03:44:33.480Z,98444.13
2022-11-20T03:46:07.555Z,98438.03
2022-11-20T03:47:39.750Z,98443.97
2022-11-20T03:49:12.999Z,98453.47
2022-11-20T03:50:45.172Z,98457.09
2022-11-20T03:52:18.371Z,98448.16
2022-11-20T03:53:53.900Z,98452.22
2022-11-20T03:55:27.049Z,98461.69
2022-11-20T03:57:00.297Z,98462.31
2022-11-20T03:58:34.951Z,98467.28
2022-11-20T04:00:09.200Z,98473.25
2022-11-20T04:01:45.534Z,98477.00
2022-11-20T04:03:22.410Z,98476.13
2022-11-20T04:04:55.570Z,98479.88
2022-11-20T04:06:31.367Z,98488.59
2022-11-20T04:08:04.501Z,98479.81
2022-11-20T04:09:37.635Z,98479.88
2022-11-20T04:11:12.786Z,98486.88
2022-11-20T04:12:46.107Z,98488.59
2022-11-20T04:14:20.616Z,98485.00
2022-11-20T04:15:53.824Z,98481.44
2022-11-20T04:17:27.243Z,98477.69
2022-11-20T04:19:02.041Z,98486.41
2022-11-20T04:20:35.796Z,98495.81
2022-11-20T04:22:09.590Z,98494.66
2022-11-20T04:23:41.708Z,98505.69
2022-11-20T04:25:14.996Z,98504.59
2022-11-20T04:26:47.093Z,98509.06
2022-11-20T04:28:20.248Z,98496.59
2022-11-20T04:29:54.806Z,98476.88
2022-11-20T04:31:30.135Z,98508.72
2022-11-20T04:33:03.339Z,98497.09
2022-11-20T04:34:36.586Z,98504.59
2022-11-20T04:36:12.591Z,98502.75
2022-11-20T04:37:45.716Z,98504.44
2022-11-20T04:39:19.175Z,98503.56
2022-11-20T04:40:51.589Z,98505.31
2022-11-20T04:42:30.959Z,98514.34
2022-11-20T04:44:06.469Z,98519.31
2022-11-20T04:45:41.074Z,98528.88
2022-11-20T04:47:14.274Z,98525.13
2022-11-20T04:48:48.232Z,98526.84
2022-11-20T04:50:21.446Z,98533.69
2022-11-20T04:51:55.589Z,98539.00
2022-11-20T04:53:28.814Z,98542.59
2022-11-20T04:55:01.981Z,98540.53
2022-11-20T04:56:34.292Z,98525.13
2022-11-20T04:58:07.631Z,98525.69
2022-11-20T04:59:40.774Z,98527.97
2022-11-20T05:01:17.586Z,98550.59
2022-11-20T05:02:50.775Z,98531.06
2022-11-20T05:04:23.117Z,98537.09
2022-11-20T05:05:56.364Z,98512.69
2022-11-20T05:07:29.649Z,98538.38
2022-11-20T05:09:02.107Z,98527.56
2022-11-20T05:10:35.379Z,98519.53
2022-11-20T05:12:09.858Z,98527.47
2022-11-20T05:13:42.799Z,98520.78
2022-11-20T05:15:16.238Z,98523.09
2022-11-20T05:16:50.981Z,98529.69
2022-11-20T05:18:24.202Z,98527.56
2022-11-20T05:19:57.372Z,98523.84
2022-11-20T05:21:32.918Z,98528.34
2022-11-20T05:23:05.132Z,98516.06
2022-11-20T05:24:38.275Z,98514.16
2022-11-20T05:26:15.045Z,98504.34
2022-11-20T05:27:48.282Z,98514.16
2022-11-20T05:29:21.650Z,98513.50
2022-11-20T05:30:55.037Z,98512.78
2022-11-20T05:32:29.658Z,98525.09
2022-11-20T05:34:02.863Z,98529.53
2022-11-20T05:35:35.045Z,98531.94
2022-11-20T05:37:08.163Z,98531.78
2022-11-20T05:38:41.655Z,98532.53
2022-11-20T05:40:15.472Z,98537.53
2022-11-20T05:42:08.709Z,98543.75
2022-11-20T05:43:43.747Z,98525.47
2022-11-20T05:45:16.975Z,98551.97
2022-11-20T05:46:50.280Z,98549.06
2022-11-20T05:48:24.897Z,98531.56
2022-11-20T05:49:58.102Z,98546.03
2022-11-20T05:51:31.304Z,98561.56
2022-11-20T05:53:03.482Z,98563.31
2022-11-20T05:54:36.731Z,98570.31
2022-11-20T05:56:13.040Z,98585.03
2022-11-20T05:57:46.280Z,98577.81
2022-11-20T05:59:19.745Z,98586.63
2022-11-20T06:00:53.354Z,98591.00
2022-11-20T06:02:26.936Z,98599.91
2022-11-20T06:04:01.534Z,98599.72
2022-11-20T06:05:36.018Z,98603.16
2022-11-20T06:07:09.335Z,98598.38
2022-11-20T06:08:42.779Z,98600.59
2022-11-20T06:10:16.040Z,98594.97
2022-11-20T06:11:49.215Z,98590.88
2022-11-20T06:13:22.492Z,98601.72
2022-11-20T06:14:55.691Z,98615.25
2022-11-20T06:16:28.971Z,98605.75
2022-11-20T06:18:01.142Z,98591.69
2022-11-20T06:19:35.746Z,98594.56
2022-11-20T06:21:10.914Z,98600.00
2022-11-20T06:22:44.009Z,98594.19
2022-11-20T06:24:17.783Z,98606.34
2022-11-20T06:25:49.967Z,98600.63
2022-11-20T06:27:23.131Z,98610.03
2022-11-20T06:28:57.156Z,98608.72
2022-11-20T06:30:30.388Z,98621.94
2022-11-20T06:32:03.592Z,98625.28
2022-11-20T06:33:36.877Z,98625.28
2022-11-20T06:35:12.301Z,98626.03
2022-11-20T06:36:45.562Z,98635.91
2022-11-20T06:38:18.763Z,98639.47
2022-11-20T06:39:52.039Z,98663.41
2022-11-20T06:41:26.259Z,98654.53
2022-11-20T06:42:59.450Z,98670.66
2022-11-20T06:44:32.650Z,98680.56
2022-11-20T06:46:06.347Z,98677.25
2022-11-20T06:47:39.551Z,98686.06
2022-11-20T06:49:12.656Z,98685.50
2022-11-20T06:50:47.287Z,98700.13
2022-11-20T06:52:20.400Z,98696.00
2022-11-20T06:53:53.611Z,98701.63
2022-11-20T06:55:26.817Z,98697.59
2022-11-20T06:56:58.960Z,98700.00
2022-11-20T06:58:33.808Z,98726.38
2022-11-20T07:00:08.383Z,98720.47
2022-11-20T07:01:41.596Z,98723.13
2022-11-20T07:03:15.138Z,98730.00
2022-11-20T07:04:48.353Z,98736.84
2022-11-20T07:06:23.032Z,98739.16
2022-11-20T07:07:58.133Z,98732.59
2022-11-20T07:09:31.401Z,98733.31
2022-11-20T07:11:06.599Z,98741.72
2022-11-20T07:12:39.763Z,98751.56
2022-11-20T07:14:12.917Z,98746.69
2022-11-20T07:15:46.303Z,98746.66
2022-11-20T07:17:19.529Z,98746.50
2022-11-20T07:18:52.699Z,98769.13
2022-11-20T07:20:25.931Z,98768.09
2022-11-20T07:22:00.459Z,98778.53
2022-11-20T07:23:33.812Z,98763.44
2022-11-20T07:25:07.796Z,98770.66
2022-11-20T07:26:40.949Z,98771.78
2022-11-20T07:28:14.888Z,98782.47
2022-11-20T07:29:48.068Z,98791.97
2022-11-20T07:31:21.277Z,98792.84
2022-11-20T07:32:55.191Z,98783.50
2022-11-20T07:34:28.407Z,98782.44
2022-11-20T07:36:01.911Z,98774.06
2022-11-20T07:37:37.778Z,98777.28
2022-11-20T07:39:10.980Z,98767.69
2022-11-20T07:40:44.346Z,98770.97
2022-11-20T07:42:17.652Z,98768.06
2022-11-20T07:43:50.834Z,98751.28
2022-11-20T07:45:25.787Z,98767.13
2022-11-20T07:46:59.003Z,98763.78
2022-11-20T07:48:32.138Z,98761.97
2022-11-20T07:50:06.047Z,98784.28
2022-11-20T07:51:39.285Z,98794.09
2022-11-20T07:53:14.906Z,98790.16
2022-11-20T07:54:48.083Z,98789.66
2022-11-20T07:56:21.318Z,98799.63
2022-11-20T07:57:57.639Z,98789.16
2022-11-20T07:59:30.758Z,98783.16
2022-11-20T08:01:08.505Z,98789.53
2022-11-20T08:02:42.153Z,98799.78
2022-11-20T08:04:17.187Z,98804.94
2022-11-20T08:05:50.441Z,98809.53
2022-11-20T08:07:23.744Z,98805.44
2022-11-20T08:08:58.536Z,98815.63
2022-11-20T08:10:31.731Z,98802.00
2022-11-20T08:12:22.315Z,98805.09
2022-11-20T08:14:12.744Z,98808.34
2022-11-20T08:15:51.168Z,98793.47
2022-11-20T08:17:24.402Z,98796.22
2022-11-20T08:18:57.680Z,98794.47
2022-11-20T08:20:30.887Z,98795.13
2022-11-20T08:22:03.984Z,98799.25
2022-11-20T08:23:37.219Z,98809.19
2022-11-20T08:25:12.355Z,98806.38
2022-11-20T08:26:45.501Z,98813.97
2022-11-20T08:28:21.856Z,98818.78
2022-11-20T08:29:55.493Z,98810.81
2022-11-20T08:31:30.816Z,98803.00
2022-11-20T08:33:06.556Z,98797.28
2022-11-20T08:34:39.851Z,98811.31
2022-11-20T08:36:13.044Z,98805.59
2022-11-20T08:37:48.729Z,98806.84
2022-11-20T08:39:22.210Z,98800.41
2022-11-20T08:41:17.818Z,98790.88
2022-11-20T08:42:52.018Z,98795.75
2022-11-20T08:44:25.477Z,98807.13
2022-11-20T08:45:58.921Z,98801.66
2022-11-20T08:47:32.645Z,98791.75
2022-11-20T08:49:07.032Z,98782.47
2022-11-20T08:50:40.274Z,98802.84
2022-11-20T08:52:13.411Z,98797.22
2022-11-20T08:53:46.744Z,98795.69
2022-11-20T08:55:20.084Z,98781.09
2022-11-20T08:56:54.741Z,98774.94
2022-11-20T08:58:28.325Z,98765.00
2022-11-20T09:00:06.345Z,98768.84
2022-11-20T09:01:40.161Z,98764.97
2022-11-20T09:03:14.415Z,98767.34
2022-11-20T09:04:47.767Z,98775.06
2022-11-20T09:06:20.883Z,98772.97
2022-11-20T09:07:54.204Z,98769.81
2022-11-20T09:09:27.369Z,98764.31
2022-11-20T09:11:01.515Z,98766.59
2022-11-20T09:12:36.121Z,98769.84
2022-11-20T09:14:09.441Z,98766.84
2022-11-20T09:15:42.673Z,98760.22
2022-11-20T09:17:15.996Z,98752.84
2022-11-20T09:19:02.239Z,98749.03
2022-11-20T09:20:45.244Z,98744.84
2022-11-20T09:22:18.464Z,98734.72
2022-11-20T09:23:51.706Z,98727.94
2022-11-20T09:25:25.059Z,98735.09
2022-11-20T09:26:58.239Z,98744.69
2022-11-20T09:28:33.973Z,98744.50
2022-11-20T09:30:08.380Z,98743.53
2022-11-20T09:31:41.651Z,98737.47
2022-11-20T09:33:14.980Z,98738.81
2022-11-20T09:34:48.175Z,98736.06
2022-11-20T09:36:21.919Z,98736.72
2022-11-20T09:37:55.115Z,98736.91
2022-11-20T09:39:28.372Z,98730.44
2022-11-20T09:41:08.006Z,98716.06
2022-11-20T09:42:47.569Z,98713.31
2022-11-20T09:44:36.875Z,98707.44
2022-11-20T09:46:19.345Z,98693.38
2022-11-20T09:48:10.191Z,98713.63
2022-11-20T09:50:02.175Z,98710.28
2022-11-20T09:51:46.217Z,98714.84
2022-11-20T09:53:29.491Z,98705.34
2022-11-20T09:55:05.796Z,98701.34
2022-11-20T09:56:42.283Z,98700.78
2022-11-20T09:58:23.527Z,98695.03
2022-11-20T10:00:01.629Z,98695.50
2022-11-20T10:01:45.790Z,98704.50
2022-11-20T10:03:25.762Z,98698.91
2022-11-20T10:05:04.436Z,98682.03
2022-11-20T10:06:44.358Z,98677.28
2022-11-20T10:08:24.011Z,98666.78
2022-11-20T10:09:58.614Z,98676.31
2022-11-20T10:11:43.381Z,98684.84
2022-11-20T10:13:29.347Z,98689.75
2022-11-20T10:15:13.669Z,98677.00
2022-11-20T10:16:55.846Z,98662.84
2022-11-20T10:18:44.468Z,98671.19
2022-11-20T10:20:26.785Z,98667.16
2022-11-20T10:22:10.269Z,98662.38
2022-11-20T10:23:59.155Z,98666.13
2022-11-20T10:25:40.282Z,98654.22
2022-11-20T10:27:32.211Z,98651.00
2022-11-20T10:29:13.832Z,98653.28
2022-11-20T10:30:53.973Z,98652.00
2022-11-20T10:32:33.480Z,98656.78
2022-11-20T10:34:19.399Z,98647.66
2022-11-20T10:36:14.453Z,98639.97
2022-11-20T10:37:51.127Z,98647.22
2022-11-20T10:39:33.616Z,98654.25
2022-11-20T10:41:27.037Z,98652.56
2022-11-20T10:43:03.415Z,98654.50
2022-11-20T10:44:56.819Z,98649.25
2022-11-20T10:46:39.239Z,98640.59
2022-11-20T10:48:19.173Z,98648.72
2022-11-20T10:49:55.246Z,98657.78
2022-11-20T10:51:38.582Z,98656.63
2022-11-20T10:53:24.595Z,98651.06
2022-11-20T10:55:07.300Z,98657.69
2022-11-20T10:56:49.707Z,98655.44
2022-11-20T10:58:32.212Z,98653.00
2022-11-20T11:00:08.272Z,98655.97
2022-11-20T11:01:44.800Z,98655.31
2022-11-20T11:03:25.938Z,98651.59
2022-11-20T11:05:01.652Z,98648.69
2022-11-20T11:06:39.197Z,98644.22
2022-11-20T11:08:17.506Z,98623.31
2022-11-20T11:09:52.953Z,98617.16
2022-11-20T11:11:29.660Z,98602.41
2022-11-20T11:13:03.399Z,98622.44
2022-11-20T11:14:45.108Z,98622.59
2022-11-20T11:16:25.996Z,98618.63
2022-11-20T11:18:00.608Z,98612.66
2022-11-20T11:19:33.860Z,98616.94
2022-11-20T11:21:07.554Z,98617.13
2022-11-20T11:22:47.376Z,98623.09
2022-11-20T11:24:41.785Z,98625.13
2022-11-20T11:26:23.199Z,98638.03
2022-11-20T11:28:01.978Z,98630.16
2022-11-20T11:29:35.685Z,98635.47
2022-11-20T11:31:08.922Z,98641.06
2022-11-20T11:32:42.233Z,98641.38
2022-11-20T11:34:18.961Z,98639.00
2022-11-20T11:35:54.641Z,98643.38
2022-11-20T11:37:37.029Z,98644.03
2022-11-20T11:39:16.485Z,98653.78
2022-11-20T11:40:49.770Z,98650.41
2022-11-20T11:42:23.210Z,98660.25
2022-11-20T11:44:30.745Z,98643.28
2022-11-20T11:46:04.267Z,98666.88
2022-11-20T11:47:45.145Z,98667.09
2022-11-20T11:49:21.942Z,98656.81
2022-11-20T11:50:55.460Z,98659.81
2022-11-20T11:52:29.851Z,98653.38
2022-11-20T11:54:07.748Z,98675.00
2022-11-20T11:55:46.179Z,98668.09
2022-11-20T11:57:27.139Z,98659.66
2022-11-20T11:59:06.702Z,98660.09
2022-11-20T12:00:43.747Z,98670.03
2022-11-20T12:02:29.649Z,98685.25
2022-11-20T12:04:08.149Z,98678.22
2022-11-20T12:05:45.954Z,98667.13
2022-11-20T12:07:46.146Z,98667.56
2022-11-20T12:09:24.275Z,98683.53
2022-11-20T12:11:03.182Z,98671.72
2022-11-20T12:12:42.181Z,98663.53
2022-11-20T12:14:25.009Z,98652.97
2022-11-20T12:15:58.266Z,98671.88
2022-11-20T12:17:31.471Z,98682.91
2022-11-20T12:19:10.032Z,98696.16
2022-11-20T12:20:50.482Z,98706.38
2022-11-20T12:22:35.894Z,98695.34
2022-11-20T12:24:28.085Z,98676.72
2022-11-20T12:26:10.171Z,98686.16
2022-11-20T12:28:19.140Z,98678.69
2022-11-20T12:30:01.013Z,98681.16
2022-11-20T12:31:48.310Z,98673.91
2022-11-20T12:33:49.883Z,98661.00
2022-11-20T12:35:50.057Z,98666.25
2022-11-20T12:37:36.383Z,98683.66
2022-11-20T12:39:24.695Z,98681.09
2022-11-20T12:41:06.675Z,98678.06
2022-11-20T12:43:13.329Z,98671.88
2022-11-20T12:45:12.799Z,98658.03
2022-11-20T12:46:50.180Z,98666.38
2022-11-20T12:48:46.467Z,98666.00
2022-11-20T12:50:30.598Z,98662.81
2022-11-20T12:52:31.300Z,98668.59
2022-11-20T12:54:22.196Z,98670.09
2022-11-20T12:56:04.022Z,98675.25
2022-11-20T12:57:48.678Z,98678.47
2022-11-20T12:59:36.111Z,98672.09
2022-11-20T13:01:40.788Z,98672.09
2022-11-20T13:03:41.238Z,98666.88
2022-11-20T13:05:21.999Z,98664.59
2022-11-20T13:06:56.468Z,98665.00
2022-11-20T13:08:35.266Z,98660.06
2022-11-20T13:10:20.350Z,98653.03
2022-11-20T13:12:05.250Z,98650.19
2022-11-20T13:13:59.033Z,98658.38
2022-11-20T13:15:43.698Z,98663.00
2022-11-20T13:17:22.869Z,98671.31
2022-11-20T13:18:56.192Z,98679.69
2022-11-20T13:20:30.283Z,98685.75
2022-11-20T13:22:03.815Z,98686.59
2022-11-20T13:23:38.439Z,98684.03
2022-11-20T13:25:16.280Z,98688.72
2022-11-20T13:26:49.895Z,98682.53
2022-11-20T13:28:31.557Z,98694.22
2022-11-20T13:30:18.190Z,98702.50
2022-11-20T13:31:51.394Z,98707.34
2022-11-20T13:33:29.351Z,98712.84
2022-11-20T13:35:06.583Z,98700.69
2022-11-20T13:36:51.303Z,98716.94
2022-11-20T13:38:24.521Z,98711.16
2022-11-20T13:40:15.004Z,98718.25
2022-11-20T13:41:57.014Z,98735.34
2022-11-20T13:43:37.366Z,98749.88
2022-11-20T13:45:14.187Z,98762.69
2022-11-20T13:46:48.867Z,98781.69
2022-11-20T13:48:24.327Z,98787.69
2022-11-20T13:50:00.257Z,98802.66
2022-11-20T13:51:44.806Z,98807.50
2022-11-20T13:53:35.179Z,98798.56
2022-11-20T13:55:19.418Z,98805.41
2022-11-20T13:57:06.573Z,98799.94
2022-11-20T13:58:52.971Z,98792.72
2022-11-20T14:00:27.509Z,98789.66
2022-11-20T14:02:02.150Z,98796.88
2022-11-20T14:04:05.756Z,98791.72
2022-11-20T14:05:30.587Z,98801.31
2022-11-20T14:07:07.524Z,98814.69
2022-11-20T14:08:43.797Z,98813.84
2022-11-20T14:10:31.323Z,98822.41
2022-11-20T14:12:16.358Z,98830.53
2022-11-20T14:13:58.716Z,98836.66
2022-11-20T14:15:34.276Z,98844.03
2022-11-20T14:17:08.888Z,98850.25
2022-11-20T14:18:42.117Z,98861.84
2022-11-20T14:20:19.786Z,98856.28
2022-11-20T14:21:56.204Z,98843.81
2022-11-20T14:23:31.272Z,98829.78
2022-11-20T14:25:08.856Z,98823.44
2022-11-20T14:26:46.445Z,98815.06
2022-11-20T14:28:27.982Z,98802.00
2022-11-20T14:30:03.994Z,98820.84
2022-11-20T14:31:37.315Z,98830.09
2022-11-20T14:33:14.144Z,98827.72
2022-11-20T14:34:50.053Z,98808.88
2022-11-20T14:36:26.306Z,98783.44
2022-11-20T14:38:01.008Z,98777.69
2022-11-20T14:39:36.476Z,98793.63
2022-11-20T14:41:10.257Z,98795.81
2022-11-20T14:42:46.384Z,98781.94
2022-11-20T14:44:24.871Z,98775.06
2022-11-20T14:46:00.537Z,98781.47
2022-11-20T14:47:34.690Z,98795.84
2022-11-20T14:49:08.086Z,98806.19
2022-11-20T14:50:41.881Z,98814.06
2022-11-20T14:52:17.344Z,98812.38
2022-11-20T14:53:50.547Z,98802.63
2022-11-20T14:55:32.166Z,98811.59
2022-11-20T14:57:06.309Z,98822.28
2022-11-20T14:58:40.917Z,98820.41
2022-11-20T15:00:22.605Z,98808.84
2022-11-20T15:02:01.511Z,98795.22
2022-11-20T15:03:35.476Z,98804.47
2022-11-20T15:05:09.328Z,98794.91
2022-11-20T15:06:52.226Z,98792.31
2022-11-20T15:08:25.500Z,98800.34
2022-11-20T15:10:02.989Z,98793.34
2022-11-20T15:11:37.756Z,98776.03
2022-11-20T15:13:15.202Z,98775.09
2022-11-20T15:14:50.463Z,98776.03
2022-11-20T15:16:26.143Z,98769.03
2022-11-20T15:18:00.321Z,98760.44
2022-11-20T15:19:33.484Z,98752.66
2022-11-20T15:21:12.970Z,98736.13
2022-11-20T15:22:46.206Z,98724.75
2022-11-20T15:24:19.984Z,98708.22
2022-11-20T15:25:53.369Z,98685.59
2022-11-20T15:27:26.615Z,98688.19
2022-11-20T15:28:59.920Z,98725.22
2022-11-20T15:30:35.529Z,98729.78
2022-11-20T15:32:13.391Z,98747.91
2022-11-20T15:33:46.999Z,98753.94
2022-11-20T15:35:20.417Z,98757.34
2022-11-20T15:36:54.058Z,98753.59
2022-11-20T15:38:27.365Z,98749.81
2022-11-20T15:40:00.523Z,98748.72
2022-11-20T15:41:33.730Z,98738.91
2022-11-20T15:43:12.563Z,98752.16
2022-11-20T15:44:46.810Z,98755.59
2022-11-20T15:46:28.655Z,98757.22
2022-11-20T15:48:02.298Z,98762.63
2022-11-20T15:49:35.598Z,98772.28
2022-11-20T15:51:21.695Z,98770.41
2022-11-20T15:52:54.951Z,98777.59
2022-11-20T15:54:28.137Z,98771.41
2022-11-20T15:56:01.333Z,98767.91
2022-11-20T15:57:35.324Z,98780.31
2022-11-20T15:59:08.478Z,98786.34
2022-11-20T16:00:41.983Z,98781.03
2022-11-20T16:02:19.278Z,98778.38
2022-11-20T16:03:52.867Z,98793.34
2022-11-20T16:05:27.188Z,98793.34
2022-11-20T16:07:00.404Z,98771.13
2022-11-20T16:08:33.667Z,98802.94
2022-11-20T16:10:07.499Z,98808.75
2022-11-20T16:11:41.472Z,98803.16
2022-11-20T16:13:33.478Z,98804.72
2022-11-20T16:15:25.324Z,98816.03
2022-11-20T16:16:58.561Z,98819.53
2022-11-20T16:18:34.395Z,98816.72
2022-11-20T16:20:12.612Z,98816.72
2022-11-20T16:21:46.234Z,98818.44
2022-11-20T16:23:19.981Z,98814.84
2022-11-20T16:24:54.073Z,98809.78
2022-11-20T16:26:27.394Z,98813.47
2022-11-20T16:28:00.789Z,98811.91
2022-11-20T16:29:34.131Z,98818.38
2022-11-20T16:31:12.026Z,98827.25
2022-11-20T16:32:45.316Z,98817.66
2022-11-20T16:34:20.003Z,98823.75
2022-11-20T16:35:53.359Z,98822.81
2022-11-20T16:37:26.809Z,98820.91
2022-11-20T16:39:01.774Z,98821.75
2022-11-20T16:40:35.235Z,98822.34
2022-11-20T16:42:08.527Z,98812.59
2022-11-20T16:43:46.785Z,98803.75
2022-11-20T16:45:25.482Z,98798.72
2022-11-20T16:47:01.262Z,98795.25
2022-11-20T16:48:34.399Z,98796.13
2022-11-20T16:50:09.909Z,98777.94
2022-11-20T16:51:43.256Z,98801.09
2022-11-20T16:53:16.753Z,98795.66
2022-11-20T16:54:49.943Z,98780.81
2022-11-20T16:56:25.254Z,98793.41
2022-11-20T16:57:58.582Z,98802.19
2022-11-20T16:59:31.800Z,98792.75
2022-11-20T17:01:10.679Z,98798.41
2022-11-20T17:02:44.007Z,98800.97
2022-11-20T17:04:17.406Z,98818.84
2022-11-20T17:05:52.129Z,98813.81
2022-11-20T17:07:25.497Z,98814.84
2022-11-20T17:08:59.591Z,98814.66
2022-11-20T17:10:33.079Z,98814.66
2022-11-20T17:12:10.214Z,98803.88
2022-11-20T17:13:43.735Z,98815.22
2022-11-20T17:15:17.113Z,98796.88
2022-11-20T17:16:50.437Z,98808.16
2022-11-20T17:18:23.945Z,98798.41
2022-11-20T17:19:57.196Z,98795.84
2022-11-20T17:21:32.883Z,98777.41
2022-11-20T17:23:06.176Z,98766.88
2022-11-20T17:24:39.533Z,98766.88
2022-11-20T17:26:16.839Z,98766.88
2022-11-20T17:27:50.145Z,98745.03
2022-11-20T17:29:24.387Z,98765.00
2022-11-20T17:31:01.544Z,98768.41
2022-11-20T17:32:34.889Z,98764.06
2022-11-20T17:34:08.919Z,98759.53
2022-11-20T17:35:42.166Z,98739.75
2022-11-20T17:37:16.684Z,98757.81
2022-11-20T17:38:50.316Z,98742.81
2022-11-20T17:40:27.580Z,98744.63
2022-11-20T17:42:18.275Z,98749.84
2022-11-20T17:43:55.059Z,98752.50
2022-11-20T17:45:28.290Z,98751.81
2022-11-20T17:47:01.483Z,98758.00
2022-11-20T17:48:35.078Z,98763.31
2022-11-20T17:50:09.385Z,98763.31
2022-11-20T17:51:42.613Z,98774.69
2022-11-20T17:53:17.169Z,98759.69
2022-11-20T17:54:50.355Z,98748.13
2022-11-20T17:56:41.080Z,98733.81
2022-11-20T17:58:13.425Z,98732.78
2022-11-20T17:59:46.596Z,98738.81
2022-11-20T18:01:20.290Z,98730.06
2022-11-20T18:02:53.503Z,98740.16
2022-11-20T18:04:26.968Z,98744.53
2022-11-20T18:06:00.300Z,98755.16
2022-11-20T18:07:37.128Z,98758.84
2022-11-20T18:09:15.980Z,98754.38
2022-11-20T18:10:49.441Z,98751.81
2022-11-20T18:12:22.970Z,98756.63
2022-11-20T18:14:16.284Z,98755.75
2022-11-20T18:15:49.754Z,98770.47
2022-11-20T18:17:23.363Z,98768.78
2022-11-20T18:18:56.995Z,98771.44
2022-11-20T18:20:33.122Z,98773.94
2022-11-20T18:22:10.832Z,98765.00
2022-11-20T18:23:44.241Z,98756.09
2022-11-20T18:25:19.067Z,98764.84
2022-11-20T18:26:52.549Z,98765.16
2022-11-20T18:28:25.942Z,98758.31
2022-11-20T18:29:59.609Z,98748.91
2022-11-20T18:31:33.659Z,98746.31
2022-11-20T18:33:07.148Z,98745.56
2022-11-20T18:34:40.924Z,98743.03
2022-11-20T18:36:17.312Z,98743.75
2022-11-20T18:37:52.118Z,98730.81
2022-11-20T18:39:25.693Z,98722.72
2022-11-20T18:41:03.672Z,98723.69
2022-11-20T18:42:55.957Z,98722.84
2022-11-20T18:44:48.136Z,98714.97
2022-11-20T18:46:22.181Z,98702.81
2022-11-20T18:47:55.400Z,98711.69
2022-11-20T18:49:27.958Z,98713.91
2022-11-20T18:51:06.914Z,98696.53
2022-11-20T18:52:44.666Z,98694.22